createdAt,value
2023-08-08T00:02:20.309Z,3.55
2023-08-08T00:04:53.109Z,3.90
2023-08-08T00:07:24.028Z,4.25
2023-08-08T00:09:56.455Z,7.82
2023-08-08T00:12:27.762Z,10.52
2023-08-08T00:14:59.010Z,5.22
2023-08-08T00:17:29.894Z,4.70
2023-08-08T00:20:00.935Z,6.07
2023-08-08T00:22:32.008Z,6.20
2023-08-08T00:25:04.792Z,3.63
2023-08-08T00:27:35.527Z,3.50
2023-08-08T00:30:07.436Z,3.25
2023-08-08T00:32:38.247Z,3.22
2023-08-08T00:35:09.587Z,5.20
2023-08-08T00:37:40.374Z,2.72
2023-08-08T00:40:13.399Z,2.60
2023-08-08T00:42:44.201Z,3.17
2023-08-08T00:45:14.917Z,2.85
2023-08-08T00:47:45.519Z,2.97
2023-08-08T00:50:16.544Z,2.58
2023-08-08T00:52:47.982Z,4.85
2023-08-08T00:55:21.579Z,2.78
2023-08-08T00:57:52.485Z,2.88
2023-08-08T01:00:23.520Z,4.13
2023-08-08T01:02:54.445Z,2.17
2023-08-08T01:05:25.763Z,2.25
2023-08-08T01:07:59.298Z,2.42
2023-08-08T01:10:35.492Z,2.50
2023-08-08T01:13:08.984Z,2.50
2023-08-08T01:15:40.737Z,2.88
2023-08-08T01:18:12.423Z,2.17
2023-08-08T01:20:43.231Z,2.38
2023-08-08T01:23:17.799Z,2.30
2023-08-08T01:25:50.776Z,2.38
2023-08-08T01:28:25.252Z,2.35
2023-08-08T01:30:58.049Z,2.28
2023-08-08T01:33:29.228Z,2.72
2023-08-08T01:36:16.656Z,2.85
2023-08-08T01:38:49.899Z,2.67
2023-08-08T01:41:23.592Z,2.05
2023-08-08T01:43:54.637Z,6.05
2023-08-08T01:46:27.532Z,2.88
2023-08-08T01:48:58.448Z,3.28
2023-08-08T01:51:30.309Z,2.70
2023-08-08T01:54:01.320Z,2.45
2023-08-08T01:56:34.136Z,2.28
2023-08-08T01:59:05.038Z,2.20
2023-08-08T02:01:35.812Z,2.17
2023-08-08T02:04:07.219Z,2.63
2023-08-08T02:06:38.098Z,8.80
2023-08-08T02:09:08.922Z,2.72
2023-08-08T02:11:42.144Z,2.60
2023-08-08T02:14:13.074Z,2.25
2023-08-08T02:16:45.076Z,2.03
2023-08-08T02:19:17.390Z,1.95
2023-08-08T02:21:48.432Z,2.38
2023-08-08T02:24:19.365Z,2.28
2023-08-08T02:26:52.162Z,2.10
2023-08-08T02:29:23.775Z,2.13
2023-08-08T02:31:54.601Z,5.72
2023-08-08T02:34:25.476Z,4.82
2023-08-08T02:36:56.218Z,2.55
2023-08-08T02:39:27.060Z,2.65
2023-08-08T02:41:59.808Z,2.90
2023-08-08T02:44:31.055Z,6.35
2023-08-08T02:47:01.926Z,8.70
2023-08-08T02:49:32.643Z,7.93
2023-08-08T02:52:03.484Z,7.82
2023-08-08T02:54:34.172Z,7.43
2023-08-08T02:57:07.412Z,2.95
2023-08-08T02:59:38.247Z,2.65
2023-08-08T03:02:09.381Z,3.40
2023-08-08T03:04:40.241Z,2.72
2023-08-08T03:07:11.428Z,2.42
2023-08-08T03:09:42.169Z,2.65
2023-08-08T03:12:14.923Z,2.38
2023-08-08T03:14:45.617Z,4.63
2023-08-08T03:17:16.554Z,2.97
2023-08-08T03:19:47.616Z,2.72
2023-08-08T03:22:18.489Z,3.47
2023-08-08T03:24:49.521Z,2.90
2023-08-08T03:27:21.943Z,3.22
2023-08-08T03:29:53.618Z,2.58
2023-08-08T03:32:24.854Z,5.07
2023-08-08T03:34:55.996Z,5.18
2023-08-08T03:37:26.926Z,8.90
2023-08-08T03:39:57.821Z,7.57
2023-08-08T03:42:30.503Z,7.28
2023-08-08T03:45:01.335Z,8.38
2023-08-08T03:47:32.582Z,6.30
2023-08-08T03:50:03.624Z,4.80
2023-08-08T03:52:37.082Z,2.60
2023-08-08T03:55:08.537Z,3.20
2023-08-08T03:57:41.381Z,2.30
2023-08-08T04:00:14.140Z,2.58
2023-08-08T04:02:45.184Z,2.63
2023-08-08T04:05:16.136Z,2.50
2023-08-08T04:07:47.585Z,2.80
2023-08-08T04:10:18.443Z,3.00
2023-08-08T04:12:51.394Z,2.70
2023-08-08T04:15:22.271Z,2.75
2023-08-08T04:17:53.443Z,3.30
2023-08-08T04:20:24.461Z,2.55
2023-08-08T04:22:55.503Z,2.75
2023-08-08T04:25:26.499Z,3.03
2023-08-08T04:28:09.727Z,2.80
2023-08-08T04:30:41.321Z,3.10
2023-08-08T04:33:12.469Z,2.92
2023-08-08T04:35:43.820Z,2.50
2023-08-08T04:38:18.415Z,3.35
2023-08-08T04:40:53.880Z,3.30
2023-08-08T04:43:36.761Z,3.55
2023-08-08T04:46:07.518Z,3.45
2023-08-08T04:48:40.617Z,3.05
2023-08-08T04:51:12.185Z,2.75
2023-08-08T04:53:43.121Z,3.22
2023-08-08T04:56:13.895Z,3.10
2023-08-08T04:58:46.371Z,3.05
2023-08-08T05:03:49.449Z,2.92
2023-08-08T05:06:20.310Z,2.95
2023-08-08T05:08:53.362Z,2.58
2023-08-08T05:11:24.192Z,2.63
2023-08-08T05:13:56.818Z,2.83
2023-08-08T05:16:27.836Z,2.95
2023-08-08T05:18:58.910Z,2.50
2023-08-08T05:21:29.664Z,2.60
2023-08-08T05:24:00.675Z,2.80
2023-08-08T05:26:31.494Z,3.55
2023-08-08T05:29:05.067Z,2.78
2023-08-08T05:31:36.257Z,2.40
2023-08-08T05:34:07.095Z,3.35
2023-08-08T05:36:37.843Z,2.78
2023-08-08T05:39:09.639Z,2.83
2023-08-08T05:41:40.519Z,2.63
2023-08-08T05:44:12.999Z,3.67
2023-08-08T05:49:13.901Z,3.33
2023-08-08T05:51:44.783Z,2.97
2023-08-08T05:54:15.675Z,2.63
2023-08-08T05:56:46.627Z,2.42
2023-08-08T05:59:19.642Z,3.00
2023-08-08T06:01:50.495Z,3.17
2023-08-08T06:04:21.282Z,5.63
2023-08-08T06:06:51.966Z,3.38
2023-08-08T06:09:22.992Z,3.15
2023-08-08T06:11:53.899Z,3.45
2023-08-08T06:14:26.566Z,3.00
2023-08-08T06:16:57.199Z,4.32
2023-08-08T06:19:28.245Z,4.38
2023-08-08T06:21:59.938Z,3.58
2023-08-08T06:24:31.146Z,4.15
2023-08-08T06:27:02.054Z,4.47
2023-08-08T06:29:40.467Z,4.45
2023-08-08T06:32:16.772Z,4.82
2023-08-08T06:34:55.295Z,4.30
2023-08-08T06:39:56.881Z,4.00
2023-08-08T06:50:44.493Z,4.55
2023-08-08T07:57:43.353Z,4.18
2023-08-08T08:00:15.681Z,4.28
2023-08-08T08:02:47.629Z,4.63
2023-08-08T08:05:19.028Z,4.75
2023-08-08T08:07:50.682Z,4.65
2023-08-08T08:10:21.471Z,3.70
2023-08-08T08:13:00.494Z,4.30
2023-08-08T08:15:33.373Z,4.35
2023-08-08T08:18:04.662Z,4.45
2023-08-08T08:20:35.354Z,4.60
2023-08-08T08:23:06.559Z,4.60
2023-08-08T08:25:37.764Z,4.18
2023-08-08T08:28:10.835Z,4.13
2023-08-08T08:30:41.808Z,4.55
2023-08-08T08:33:13.020Z,4.20
2023-08-08T08:35:44.264Z,4.05
2023-08-08T08:38:15.475Z,4.85
2023-08-08T08:40:48.653Z,5.28
2023-08-08T08:43:21.300Z,4.13
2023-08-08T08:45:55.279Z,3.70
2023-08-08T08:48:26.011Z,4.00
2023-08-08T08:50:56.762Z,3.47
2023-08-08T08:53:30.041Z,3.42
2023-08-08T08:56:00.900Z,3.63
2023-08-08T08:58:33.377Z,4.05
2023-08-08T09:03:34.229Z,2.67
2023-08-08T09:06:07.450Z,3.53
2023-08-08T09:08:38.283Z,4.40
2023-08-08T09:11:09.140Z,3.97
2023-08-08T09:13:43.095Z,4.40
2023-08-08T09:16:15.260Z,4.20
2023-08-08T09:18:50.347Z,4.85
2023-08-08T09:21:21.942Z,4.50
2023-08-08T09:23:52.730Z,4.80
2023-08-08T09:26:23.659Z,4.22
2023-08-08T09:28:56.575Z,4.75
2023-08-08T09:31:28.818Z,4.07
2023-08-08T09:34:00.634Z,5.10
2023-08-08T09:36:33.106Z,3.95
2023-08-08T09:39:05.973Z,3.97
2023-08-08T09:41:36.925Z,3.60
2023-08-08T09:44:12.215Z,4.97
2023-08-08T09:46:43.410Z,4.00
2023-08-08T09:49:15.068Z,4.60
2023-08-08T09:51:46.609Z,4.28
2023-08-08T09:54:17.926Z,3.85
2023-08-08T09:56:49.003Z,3.60
2023-08-08T09:59:25.110Z,3.35
2023-08-08T10:01:56.473Z,4.18
2023-08-08T10:04:28.021Z,4.45
2023-08-08T10:06:58.868Z,4.22
2023-08-08T10:09:30.480Z,3.30
2023-08-08T10:12:02.121Z,3.40
2023-08-08T10:14:35.797Z,3.13
2023-08-08T10:17:07.414Z,2.65
2023-08-08T10:19:38.892Z,3.60
2023-08-08T10:22:09.956Z,4.28
2023-08-08T10:24:41.263Z,2.83
2023-08-08T10:27:11.905Z,2.63
2023-08-08T10:29:44.576Z,2.78
2023-08-08T10:32:15.343Z,2.92
2023-08-08T10:34:47.651Z,3.40
2023-08-08T10:37:23.160Z,5.80
2023-08-08T10:39:57.547Z,4.80
2023-08-08T10:42:30.240Z,5.30
2023-08-08T10:45:07.160Z,4.22
2023-08-08T10:47:39.047Z,3.45
2023-08-08T10:50:11.933Z,3.25
2023-08-08T10:52:54.721Z,6.28
2023-08-08T10:55:28.168Z,3.53
2023-08-08T10:58:00.620Z,4.30
2023-08-08T11:00:34.848Z,3.75
2023-08-08T11:03:07.525Z,4.63
2023-08-08T11:05:39.519Z,4.72
2023-08-08T11:08:11.213Z,3.80
2023-08-08T11:10:45.112Z,3.72
2023-08-08T11:13:16.108Z,3.95
2023-08-08T11:15:48.985Z,6.40
2023-08-08T11:18:20.308Z,4.00
2023-08-08T11:21:02.233Z,4.40
2023-08-08T11:23:41.561Z,3.20
2023-08-08T11:28:53.880Z,8.90
2023-08-08T11:31:27.767Z,5.82
2023-08-08T11:33:59.336Z,6.32
2023-08-08T11:36:30.499Z,4.60
2023-08-08T11:39:03.328Z,6.22
2023-08-08T11:41:34.385Z,6.13
2023-08-08T11:44:06.683Z,5.43
2023-08-08T11:46:46.194Z,6.63
2023-08-08T11:49:18.452Z,4.40
2023-08-08T11:51:49.624Z,4.05
2023-08-08T11:54:20.440Z,3.40
2023-08-08T11:56:51.406Z,3.53
2023-08-08T11:59:23.476Z,3.38
2023-08-08T12:01:56.046Z,3.70
2023-08-08T12:04:28.034Z,3.97
2023-08-08T12:07:06.009Z,3.05
2023-08-08T12:09:38.293Z,7.13
2023-08-08T12:12:10.996Z,5.00
2023-08-08T12:14:51.435Z,3.92
2023-08-08T12:17:27.724Z,4.28
2023-08-08T12:19:58.942Z,4.57
2023-08-08T12:22:30.424Z,3.60
2023-08-08T12:25:02.752Z,4.22
2023-08-08T12:27:33.952Z,4.07
2023-08-08T12:30:04.894Z,3.72
2023-08-08T12:32:37.506Z,3.47
2023-08-08T12:35:09.183Z,6.28
2023-08-08T12:37:40.939Z,3.67
2023-08-08T12:40:12.775Z,4.57
2023-08-08T12:42:44.386Z,3.05
2023-08-08T12:45:16.098Z,2.63
2023-08-08T12:47:48.734Z,3.15
2023-08-08T12:50:20.079Z,3.35
2023-08-08T12:52:50.903Z,3.80
2023-08-08T12:55:22.360Z,5.82
2023-08-08T12:57:53.391Z,3.08
2023-08-08T13:00:24.720Z,3.78
2023-08-08T13:02:57.285Z,3.38
2023-08-08T13:08:00.190Z,3.00
2023-08-08T13:10:31.846Z,2.97
2023-08-08T13:13:02.958Z,3.58
2023-08-08T13:15:33.564Z,3.55
2023-08-08T13:18:06.538Z,3.78
2023-08-08T13:20:37.380Z,3.65
2023-08-08T13:23:09.519Z,3.97
2023-08-08T13:25:40.223Z,6.18
2023-08-08T13:28:11.425Z,6.40
2023-08-08T13:30:44.008Z,5.25
2023-08-08T13:35:47.008Z,3.55
2023-08-08T13:38:18.406Z,4.60
2023-08-08T13:40:50.675Z,3.53
2023-08-08T13:43:21.559Z,4.32
2023-08-08T13:45:52.876Z,4.40
2023-08-08T13:48:25.809Z,4.50
2023-08-08T13:50:57.352Z,3.67
2023-08-08T13:53:28.198Z,4.25
2023-08-08T13:55:59.510Z,4.18
2023-08-08T13:58:30.629Z,6.00
2023-08-08T14:01:01.521Z,4.65
2023-08-08T14:03:34.505Z,3.67
2023-08-08T14:06:05.595Z,3.85
2023-08-08T14:08:36.506Z,4.03
2023-08-08T14:11:07.373Z,4.97
2023-08-08T14:13:39.900Z,4.00
2023-08-08T14:18:42.590Z,6.43
2023-08-08T14:21:14.315Z,7.30
2023-08-08T14:23:46.924Z,4.55
2023-08-08T14:28:47.731Z,6.38
2023-08-08T14:31:18.789Z,6.82
2023-08-08T14:33:51.717Z,6.97
2023-08-08T14:36:22.538Z,8.30
2023-08-08T14:38:53.952Z,6.35
2023-08-08T14:41:24.824Z,6.05
2023-08-08T14:43:55.516Z,6.10
2023-08-08T14:46:26.186Z,5.30
2023-08-08T14:48:59.736Z,5.50
2023-08-08T14:51:30.627Z,6.03
2023-08-08T14:54:01.790Z,4.72
2023-08-08T14:56:32.772Z,5.45
2023-08-08T14:59:03.447Z,6.50
2023-08-08T15:01:34.188Z,6.57
2023-08-08T15:04:07.350Z,5.72
2023-08-08T15:06:39.187Z,8.40
2023-08-08T15:09:12.467Z,6.53
2023-08-08T15:11:43.314Z,7.65
2023-08-08T15:14:14.094Z,6.53
2023-08-08T15:16:45.844Z,5.93
2023-08-08T15:19:19.726Z,7.00
2023-08-08T15:21:50.495Z,6.70
2023-08-08T15:24:21.228Z,6.53
2023-08-08T15:26:51.972Z,6.32
2023-08-08T15:29:22.757Z,7.03
2023-08-08T15:31:53.484Z,6.43
2023-08-08T15:34:26.063Z,7.97
2023-08-08T15:37:00.934Z,6.95
2023-08-08T15:39:32.491Z,7.35
2023-08-08T15:42:03.546Z,7.55
2023-08-08T15:44:34.368Z,7.85
2023-08-08T15:47:05.445Z,6.55
2023-08-08T15:49:38.350Z,7.32
2023-08-08T15:52:09.343Z,10.55
2023-08-08T15:54:40.121Z,7.50
2023-08-08T15:57:10.798Z,8.75
2023-08-08T15:59:44.870Z,9.30
2023-08-08T16:02:17.211Z,10.38
2023-08-08T16:04:52.027Z,5.88
2023-08-08T16:07:23.053Z,6.93
2023-08-08T16:09:53.533Z,4.93
2023-08-08T16:12:24.161Z,5.10
2023-08-08T16:14:54.739Z,4.60
2023-08-08T16:17:25.539Z,4.13
2023-08-08T16:19:58.512Z,3.80
2023-08-08T16:22:29.369Z,3.88
2023-08-08T16:25:00.296Z,3.85
2023-08-08T16:27:31.090Z,3.78
2023-08-08T16:30:02.009Z,4.13
2023-08-08T16:32:33.277Z,3.05
2023-08-08T16:35:06.064Z,2.63
2023-08-08T16:37:37.905Z,2.75
2023-08-08T16:40:10.441Z,2.50
2023-08-08T16:42:41.268Z,2.47
2023-08-08T16:45:12.935Z,2.20
2023-08-08T16:47:43.702Z,3.00
2023-08-08T16:50:16.438Z,2.80
2023-08-08T16:52:47.192Z,3.20
2023-08-08T16:55:18.217Z,2.55
2023-08-08T16:57:48.978Z,2.90
2023-08-08T17:00:20.523Z,2.40
2023-08-08T17:02:51.598Z,3.05
2023-08-08T17:05:24.427Z,2.70
2023-08-08T17:07:55.371Z,2.42
2023-08-08T17:10:27.020Z,2.60
2023-08-08T17:12:58.003Z,2.50
2023-08-08T17:15:28.843Z,2.83
2023-08-08T17:17:59.512Z,2.40
2023-08-08T17:20:35.746Z,2.20
2023-08-08T17:23:07.050Z,3.25
2023-08-08T17:25:38.189Z,2.75
2023-08-08T17:28:09.221Z,2.72
2023-08-08T17:30:40.309Z,2.67
2023-08-08T17:33:11.379Z,2.85
2023-08-08T17:35:45.134Z,2.75
2023-08-08T17:38:16.867Z,2.50
2023-08-08T17:40:48.214Z,2.80
2023-08-08T17:43:19.457Z,2.97
2023-08-08T17:45:51.871Z,2.70
2023-08-08T17:48:23.032Z,2.47
2023-08-08T17:50:57.857Z,2.63
2023-08-08T17:53:31.611Z,2.63
2023-08-08T17:56:02.602Z,3.03
2023-08-08T17:58:33.751Z,2.85
2023-08-08T18:01:04.961Z,2.65
2023-08-08T18:03:35.902Z,4.30
2023-08-08T18:06:08.869Z,4.57
2023-08-08T18:08:39.954Z,4.00
2023-08-08T18:11:11.419Z,4.65
2023-08-08T18:13:43.127Z,3.08
2023-08-08T18:16:14.284Z,3.47
2023-08-08T18:18:45.396Z,3.45
2023-08-08T18:21:18.336Z,3.22
2023-08-08T18:23:49.320Z,3.03
2023-08-08T18:26:20.322Z,3.75
2023-08-08T18:28:52.290Z,3.17
2023-08-08T18:31:23.613Z,3.22
2023-08-08T18:34:01.377Z,3.80
2023-08-08T18:36:36.121Z,3.35
2023-08-08T18:39:08.900Z,3.03
2023-08-08T18:41:40.181Z,4.43
2023-08-08T18:44:11.133Z,3.75
2023-08-08T18:46:43.706Z,2.90
2023-08-08T18:49:15.406Z,3.60
2023-08-08T18:51:48.265Z,3.80
2023-08-08T18:54:19.379Z,3.38
2023-08-08T18:56:50.417Z,3.50
2023-08-08T18:59:21.470Z,3.92
2023-08-08T19:01:52.592Z,3.42
2023-08-08T19:04:24.532Z,3.17
2023-08-08T19:06:57.197Z,3.60
2023-08-08T19:11:57.989Z,3.33
2023-08-08T19:14:29.380Z,3.90
2023-08-08T19:17:00.281Z,4.05
2023-08-08T19:19:31.224Z,4.10
2023-08-08T19:22:03.893Z,3.78
2023-08-08T19:27:04.565Z,4.20
2023-08-08T19:29:35.501Z,3.40
2023-08-08T19:32:06.851Z,4.10
2023-08-08T19:34:38.013Z,4.28
2023-08-08T19:37:11.074Z,4.55
2023-08-08T19:39:42.628Z,3.97
2023-08-08T19:42:14.028Z,4.55
2023-08-08T19:44:45.119Z,4.45
2023-08-08T19:47:16.171Z,4.90
2023-08-08T19:49:48.129Z,5.60
2023-08-08T19:52:21.607Z,5.72
2023-08-08T19:54:55.071Z,5.72
2023-08-08T19:57:26.152Z,5.47
2023-08-08T19:59:57.201Z,6.45
2023-08-08T20:02:28.272Z,6.13
2023-08-08T20:04:59.381Z,6.80
2023-08-08T20:07:32.131Z,6.03
2023-08-08T20:10:04.282Z,5.80
2023-08-08T20:12:35.368Z,6.50
2023-08-08T20:15:06.936Z,7.05
2023-08-08T20:17:38.121Z,6.05
2023-08-08T20:20:09.940Z,6.50
2023-08-08T20:22:42.910Z,6.38
2023-08-08T20:25:14.878Z,6.13
2023-08-08T20:27:46.191Z,5.97
2023-08-08T20:30:17.163Z,5.78
2023-08-08T20:32:48.264Z,5.47
2023-08-08T20:35:19.453Z,5.20
2023-08-08T20:37:52.329Z,5.63
2023-08-08T20:40:24.104Z,5.78
2023-08-08T20:42:54.996Z,5.55
2023-08-08T20:45:25.914Z,5.03
2023-08-08T20:47:56.973Z,5.22
2023-08-08T20:50:28.219Z,5.60
2023-08-08T20:53:00.914Z,5.05
2023-08-08T20:58:05.395Z,5.28
2023-08-08T21:00:35.995Z,5.00
2023-08-08T21:03:06.944Z,5.18
2023-08-08T21:05:37.807Z,4.95
2023-08-08T21:08:10.207Z,4.43
2023-08-08T21:10:40.797Z,4.97
2023-08-08T21:13:11.550Z,5.63
2023-08-08T21:15:42.144Z,4.60
2023-08-08T21:18:12.806Z,5.07
2023-08-08T21:20:43.539Z,4.93
2023-08-08T21:23:15.945Z,5.32
2023-08-08T21:25:46.574Z,5.00
2023-08-08T21:28:17.183Z,5.57
2023-08-08T21:30:48.088Z,5.28
2023-08-08T21:33:18.829Z,5.20
2023-08-08T21:35:49.615Z,5.15
2023-08-08T21:38:22.431Z,6.45
2023-08-08T21:40:53.942Z,5.70
2023-08-08T21:43:24.836Z,5.03
2023-08-08T21:45:55.820Z,4.85
2023-08-08T21:48:26.986Z,5.60
2023-08-08T21:50:59.740Z,4.93
2023-08-08T21:53:32.417Z,5.25
2023-08-08T21:58:34.599Z,5.35
2023-08-08T22:01:05.251Z,5.47
2023-08-08T22:03:35.775Z,5.45
2023-08-08T22:06:06.394Z,5.45
2023-08-08T22:08:38.672Z,5.53
2023-08-08T22:11:09.932Z,5.97
2023-08-08T22:13:40.744Z,6.53
2023-08-08T22:16:11.345Z,6.47
2023-08-08T22:18:42.032Z,5.25
2023-08-08T22:21:12.629Z,5.72
2023-08-08T22:23:44.964Z,6.10
2023-08-08T22:26:15.599Z,5.50
2023-08-08T22:28:46.840Z,6.15
2023-08-08T22:31:17.300Z,5.75
2023-08-08T22:33:47.895Z,5.60
2023-08-08T22:36:18.491Z,6.85
2023-08-08T22:38:50.871Z,5.45
2023-08-08T22:41:22.261Z,5.93
2023-08-08T22:43:52.742Z,6.10
2023-08-08T22:46:24.982Z,6.00
2023-08-08T22:48:55.524Z,5.47
2023-08-08T22:51:26.067Z,4.65
2023-08-08T22:53:58.229Z,5.50
2023-08-08T22:56:28.678Z,6.13
2023-08-08T22:58:59.144Z,5.25
2023-08-08T23:01:29.604Z,5.78
2023-08-08T23:04:00.104Z,5.80
2023-08-08T23:06:30.574Z,5.57
2023-08-08T23:09:02.735Z,5.00
2023-08-08T23:11:33.218Z,5.15
2023-08-08T23:14:03.722Z,6.55
2023-08-08T23:16:34.538Z,8.05
2023-08-08T23:19:05.385Z,11.55
2023-08-08T23:21:35.906Z,5.97
2023-08-08T23:24:09.751Z,5.22
2023-08-08T23:26:40.375Z,6.30
2023-08-08T23:29:10.850Z,5.07
2023-08-08T23:31:41.335Z,6.07
2023-08-08T23:34:11.887Z,5.35
2023-08-08T23:36:42.695Z,5.28
2023-08-08T23:39:15.745Z,4.60
2023-08-08T23:41:46.916Z,4.88
2023-08-08T23:44:17.589Z,4.45
2023-08-08T23:46:48.135Z,4.22
2023-08-08T23:49:20.041Z,4.30
2023-08-08T23:51:50.609Z,4.40
2023-08-08T23:54:22.908Z,4.65
2023-08-08T23:56:54.254Z,5.15
2023-08-08T23:59:24.939Z,4.82
